Terminal Aerodrome Forecast
Issued by NWS Twin Cities, MN

Home | Current Version | Previous Version | Graphics & Text | Print | Product List | Glossary On
Versions: 1 2 3 4 5 6 7 8 9 10 11 12 13 14 15 16 17 18 19 20 21 22 23 24 25 26 27
000
FTUS43 KMPX 232300 RRA
TAFMSP
TAF
KMSP 232351Z 2400/2506 11014G21KT P6SM FEW025 OVC050
     FM240600 11012G21KT 5SM -RA BR BKN025
      TEMPO 2410/2414 3SM -RA BR BKN008
     FM241400 15007KT 5SM -RA BR BKN012
     FM242000 26009KT P6SM SCT010 BKN020
     FM250000 30007KT P6SM SCT020 BKN050=

USA.gov is the U.S. government's official web portal to all federal, state and local government web resources and services.